createdAt,value
2022-08-05T00:02:22.008Z,23.00
2022-08-05T00:04:55.235Z,22.90
2022-08-05T00:08:00.620Z,22.90
2022-08-05T00:10:10.034Z,22.90
2022-08-05T00:12:56.208Z,22.80
2022-08-05T00:15:56.100Z,22.80
2022-08-05T00:18:21.758Z,22.70
2022-08-05T00:20:49.897Z,22.70
2022-08-05T00:23:16.816Z,22.60
2022-08-05T00:25:46.115Z,22.60
2022-08-05T00:28:13.435Z,22.50
2022-08-05T00:30:41.180Z,22.50
2022-08-05T00:33:15.721Z,22.50
2022-08-05T00:36:16.440Z,22.40
2022-08-05T00:38:44.641Z,22.40
2022-08-05T00:41:11.758Z,22.30
2022-08-05T00:43:46.561Z,22.30
2022-08-05T00:46:14.158Z,22.30
2022-08-05T00:48:50.672Z,22.30
2022-08-05T00:51:50.269Z,22.30
2022-08-05T00:54:06.273Z,22.30
2022-08-05T00:56:32.991Z,22.20
2022-08-05T00:59:00.304Z,22.20
2022-08-05T01:01:48.685Z,22.10
2022-08-05T01:04:15.670Z,22.10
2022-08-05T01:06:46.713Z,22.00
2022-08-05T01:09:19.824Z,21.90
2022-08-05T01:11:50.709Z,21.80
2022-08-05T01:14:28.049Z,21.80
2022-08-05T01:17:05.698Z,21.70
2022-08-05T01:19:57.042Z,22.70
2022-08-05T01:22:52.524Z,21.60
2022-08-05T01:25:43.543Z,21.40
2022-08-05T01:28:23.222Z,21.40
2022-08-05T01:30:59.388Z,21.30
2022-08-05T01:33:35.374Z,21.30
2022-08-05T01:36:12.988Z,21.20
2022-08-05T01:38:45.847Z,21.10
2022-08-05T01:41:21.784Z,21.00
2022-08-05T01:43:50.787Z,21.00
2022-08-05T01:46:43.031Z,21.10
2022-08-05T01:49:23.011Z,20.90
2022-08-05T01:51:56.346Z,20.90
2022-08-05T01:54:29.286Z,20.90
2022-08-05T01:58:29.945Z,20.80
2022-08-05T01:59:48.212Z,20.80
2022-08-05T02:02:17.683Z,20.90
2022-08-05T02:04:46.161Z,20.70
2022-08-05T02:07:21.672Z,20.70
2022-08-05T02:09:50.182Z,20.70
2022-08-05T02:12:42.087Z,20.70
2022-08-05T02:15:14.053Z,20.70
2022-08-05T02:18:31.263Z,20.60
2022-08-05T02:20:48.565Z,20.60
2022-08-05T02:23:18.347Z,20.50
2022-08-05T02:25:49.385Z,20.40
2022-08-05T02:28:29.316Z,20.40
2022-08-05T02:31:00.831Z,20.50
2022-08-05T02:33:35.944Z,20.50
2022-08-05T02:36:10.414Z,20.50
2022-08-05T02:38:42.779Z,20.50
2022-08-05T02:41:17.342Z,20.50
2022-08-05T02:44:02.307Z,20.60
2022-08-05T02:46:35.322Z,20.50
2022-08-05T02:49:02.486Z,20.70
2022-08-05T02:52:02.918Z,20.60
2022-08-05T02:54:36.465Z,20.60
2022-08-05T02:57:10.172Z,20.60
2022-08-05T02:59:54.871Z,20.70
2022-08-05T03:02:28.109Z,20.70
2022-08-05T03:04:57.248Z,20.70
2022-08-05T03:07:59.323Z,20.70
2022-08-05T03:10:15.917Z,20.70
2022-08-05T03:12:51.926Z,20.70
2022-08-05T03:15:19.926Z,20.70
2022-08-05T03:17:46.529Z,20.80
2022-08-05T03:20:13.626Z,20.70
2022-08-05T03:22:44.066Z,20.70
2022-08-05T03:25:33.445Z,20.60
2022-08-05T03:28:01.838Z,20.60
2022-08-05T03:30:33.940Z,20.60
2022-08-05T03:33:02.566Z,20.60
2022-08-05T03:35:30.970Z,20.60
2022-08-05T03:38:00.979Z,20.50
2022-08-05T03:40:31.852Z,20.50
2022-08-05T03:43:15.797Z,20.50
2022-08-05T03:45:57.386Z,20.50
2022-08-05T03:48:29.582Z,20.40
2022-08-05T03:52:38.611Z,20.40
2022-08-05T03:55:53.788Z,20.40
2022-08-05T03:56:47.621Z,20.40
2022-08-05T03:59:24.577Z,20.40
2022-08-05T04:01:53.535Z,20.50
2022-08-05T04:04:26.910Z,20.50
2022-08-05T04:06:54.769Z,20.50
2022-08-05T04:09:26.597Z,19.70
2022-08-05T04:11:56.731Z,20.50
2022-08-05T04:14:29.836Z,20.40
2022-08-05T04:16:58.759Z,20.50
2022-08-05T04:19:25.436Z,20.50
2022-08-05T04:22:08.467Z,20.50
2022-08-05T04:24:43.828Z,20.50
2022-08-05T04:27:13.847Z,20.50
2022-08-05T04:29:42.438Z,20.50
2022-08-05T04:32:09.780Z,20.60
2022-08-05T04:34:40.908Z,20.60
2022-08-05T04:37:09.847Z,20.60
2022-08-05T04:39:37.657Z,20.70
2022-08-05T04:42:06.176Z,20.50
2022-08-05T04:44:33.112Z,20.50
2022-08-05T04:46:59.801Z,20.40
2022-08-05T04:49:39.148Z,20.40
2022-08-05T04:52:22.524Z,20.40
2022-08-05T04:54:49.402Z,20.40
2022-08-05T04:57:16.218Z,20.30
2022-08-05T04:59:42.846Z,20.30
2022-08-05T05:02:36.914Z,20.30
2022-08-05T05:05:02.229Z,20.10
2022-08-05T05:07:32.345Z,20.10
2022-08-05T05:10:02.152Z,20.00
2022-08-05T05:12:29.211Z,20.10
2022-08-05T05:14:55.861Z,21.10
2022-08-05T05:17:24.704Z,19.70
2022-08-05T05:20:10.003Z,19.70
2022-08-05T05:22:41.016Z,19.60
2022-08-05T05:25:16.182Z,19.50
2022-08-05T05:27:48.525Z,19.40
2022-08-05T05:30:29.679Z,19.40
2022-08-05T05:33:00.956Z,19.30
2022-08-05T05:35:34.256Z,19.30
2022-08-05T05:38:09.150Z,19.20
2022-08-05T05:40:38.845Z,19.20
2022-08-05T05:43:10.328Z,19.20
2022-08-05T05:45:36.899Z,19.20
2022-08-05T05:48:16.115Z,19.20
2022-08-05T05:50:44.542Z,19.20
2022-08-05T05:53:22.271Z,19.30
2022-08-05T05:55:52.531Z,19.30
2022-08-05T05:58:31.621Z,19.40
2022-08-05T06:01:02.551Z,19.30
2022-08-05T06:03:54.002Z,19.30
2022-08-05T06:06:28.008Z,19.50
2022-08-05T06:08:58.438Z,19.40
2022-08-05T06:11:25.272Z,19.40
2022-08-05T06:13:54.152Z,19.40
2022-08-05T06:16:28.927Z,19.40
2022-08-05T06:19:01.246Z,19.40
2022-08-05T06:21:36.531Z,19.40
2022-08-05T06:24:12.469Z,19.40
2022-08-05T06:26:51.316Z,19.40
2022-08-05T06:29:23.510Z,19.40
2022-08-05T06:32:21.117Z,19.40
2022-08-05T06:34:53.429Z,19.40
2022-08-05T06:37:56.251Z,19.40
2022-08-05T06:40:09.971Z,19.50
2022-08-05T06:42:37.217Z,19.50
2022-08-05T06:45:08.654Z,19.60
2022-08-05T06:48:37.163Z,19.60
2022-08-05T06:50:22.733Z,19.70
2022-08-05T06:52:58.696Z,19.60
2022-08-05T06:55:30.256Z,19.70
2022-08-05T06:58:11.727Z,19.70
2022-08-05T07:00:49.546Z,19.70
2022-08-05T07:03:17.472Z,19.50
2022-08-05T07:05:44.649Z,19.80
2022-08-05T07:08:13.141Z,19.80
2022-08-05T07:10:53.061Z,19.80
2022-08-05T07:13:58.042Z,19.80
2022-08-05T07:18:02.125Z,19.90
2022-08-05T07:20:16.443Z,19.90
2022-08-05T07:22:22.013Z,19.90
2022-08-05T07:24:56.458Z,19.90
2022-08-05T07:27:23.313Z,19.90
2022-08-05T07:30:25.451Z,19.90
2022-08-05T07:32:44.243Z,20.00
2022-08-05T07:36:03.191Z,20.00
2022-08-05T07:38:04.127Z,20.00
2022-08-05T07:40:33.095Z,20.00
2022-08-05T07:43:04.781Z,20.10
2022-08-05T07:45:56.979Z,20.20
2022-08-05T07:49:00.876Z,20.20
2022-08-05T07:51:23.644Z,20.30
2022-08-05T07:53:58.074Z,20.30
2022-08-05T07:57:02.578Z,20.40
2022-08-05T07:59:11.179Z,20.50
2022-08-05T08:01:41.542Z,20.50
2022-08-05T08:04:34.323Z,20.60
2022-08-05T08:07:05.616Z,20.60
2022-08-05T08:09:34.179Z,20.60
2022-08-05T08:12:09.026Z,20.60
2022-08-05T08:14:38.082Z,20.50
2022-08-05T08:17:10.779Z,20.50
2022-08-05T08:20:22.275Z,20.50
2022-08-05T08:22:30.543Z,20.40
2022-08-05T08:25:02.845Z,20.30
2022-08-05T08:27:39.892Z,20.30
2022-08-05T08:30:30.028Z,20.20
2022-08-05T08:33:02.523Z,20.10
2022-08-05T08:35:41.511Z,20.10
2022-08-05T08:38:35.470Z,20.10
2022-08-05T08:41:08.158Z,20.10
2022-08-05T08:45:25.238Z,20.10
2022-08-05T08:46:27.310Z,20.10
2022-08-05T08:49:08.019Z,20.00
2022-08-05T08:52:03.941Z,20.10
2022-08-05T08:54:36.449Z,20.00
2022-08-05T08:57:11.261Z,20.00
2022-08-05T08:59:41.891Z,20.00
2022-08-05T09:02:14.530Z,19.60
2022-08-05T09:04:47.710Z,20.00
2022-08-05T09:07:39.981Z,20.00
2022-08-05T09:10:19.138Z,19.90
2022-08-05T09:12:50.884Z,19.90
2022-08-05T09:15:19.962Z,19.90
2022-08-05T09:17:49.687Z,19.90
2022-08-05T09:20:21.067Z,19.80
2022-08-05T09:23:19.016Z,19.80
2022-08-05T09:26:00.039Z,19.80
2022-08-05T09:28:34.092Z,19.80
2022-08-05T09:32:38.797Z,19.80
2022-08-05T09:34:01.387Z,19.70
2022-08-05T09:36:56.085Z,19.60
2022-08-05T09:39:39.196Z,19.60
2022-08-05T09:42:23.720Z,19.60
2022-08-05T09:44:56.600Z,19.60
2022-08-05T09:47:29.468Z,19.60
2022-08-05T09:50:13.361Z,19.50
2022-08-05T09:52:45.396Z,19.50
2022-08-05T09:55:56.091Z,19.50
2022-08-05T09:57:59.861Z,19.50
2022-08-05T10:00:30.528Z,19.40
2022-08-05T10:02:58.608Z,19.30
2022-08-05T10:05:28.267Z,19.30
2022-08-05T10:08:35.672Z,19.30
2022-08-05T10:10:50.407Z,19.30
2022-08-05T10:13:47.262Z,19.30
2022-08-05T10:16:41.758Z,19.30
2022-08-05T10:19:19.163Z,19.30
2022-08-05T10:21:50.917Z,19.30
2022-08-05T10:24:21.313Z,19.30
2022-08-05T10:26:56.120Z,19.30
2022-08-05T10:30:41.520Z,19.30
2022-08-05T10:32:51.665Z,19.30
2022-08-05T10:35:03.607Z,19.40
2022-08-05T10:37:40.263Z,19.30
2022-08-05T10:40:33.932Z,19.30
2022-08-05T10:43:16.409Z,19.30
2022-08-05T10:46:06.314Z,19.30
2022-08-05T10:48:52.886Z,19.30
2022-08-05T10:51:29.156Z,19.30
2022-08-05T10:54:00.834Z,19.30
2022-08-05T10:56:30.341Z,19.20
2022-08-05T10:59:11.396Z,19.20
2022-08-05T11:01:54.998Z,19.20
2022-08-05T11:04:31.714Z,19.20
2022-08-05T11:07:04.833Z,19.30
2022-08-05T11:09:51.709Z,19.30
2022-08-05T11:12:54.385Z,19.30
2022-08-05T11:16:00.802Z,19.40
2022-08-05T11:18:32.739Z,19.40
2022-08-05T11:21:02.796Z,19.30
2022-08-05T11:24:04.963Z,19.30
2022-08-05T11:26:40.431Z,19.20
2022-08-05T11:29:42.630Z,19.20
2022-08-05T11:32:29.963Z,19.10
2022-08-05T11:34:57.422Z,19.10
2022-08-05T11:38:30.692Z,19.00
2022-08-05T11:41:03.513Z,19.00
2022-08-05T11:44:11.506Z,19.00
2022-08-05T11:46:58.188Z,19.00
2022-08-05T11:49:36.006Z,19.00
2022-08-05T11:52:11.547Z,19.00
2022-08-05T11:54:40.567Z,19.00
2022-08-05T11:57:25.040Z,19.00
2022-08-05T11:59:54.208Z,19.10
2022-08-05T12:02:34.535Z,19.10
2022-08-05T12:05:07.637Z,19.20
2022-08-05T12:08:03.823Z,19.30
2022-08-05T12:10:43.160Z,19.30
2022-08-05T12:13:16.401Z,19.40
2022-08-05T12:15:45.201Z,19.50
2022-08-05T12:18:20.614Z,19.50
2022-08-05T12:20:50.885Z,19.50
2022-08-05T12:23:17.469Z,19.60
2022-08-05T12:25:56.735Z,19.60
2022-08-05T12:28:35.137Z,19.60
2022-08-05T12:31:03.777Z,20.50
2022-08-05T12:33:36.499Z,19.60
2022-08-05T12:36:08.001Z,19.70
2022-08-05T12:38:39.485Z,19.70
2022-08-05T12:41:13.274Z,19.80
2022-08-05T12:43:55.519Z,19.90
2022-08-05T12:46:31.277Z,20.00
2022-08-05T12:49:13.292Z,20.10
2022-08-05T12:52:14.525Z,20.00
2022-08-05T12:54:35.705Z,20.10
2022-08-05T12:57:09.453Z,20.10
2022-08-05T13:01:57.017Z,20.20
2022-08-05T13:02:40.086Z,20.20
2022-08-05T13:05:08.346Z,20.20
2022-08-05T13:07:59.230Z,20.30
2022-08-05T13:10:28.632Z,20.30
2022-08-05T13:12:58.036Z,20.30
2022-08-05T13:15:41.721Z,20.20
2022-08-05T13:18:19.886Z,20.30
2022-08-05T13:20:49.260Z,20.30
2022-08-05T13:23:22.027Z,20.20
2022-08-05T13:25:58.700Z,20.20
2022-08-05T13:28:27.432Z,20.20
2022-08-05T13:30:54.153Z,20.30
2022-08-05T13:34:23.039Z,20.20
2022-08-05T13:36:09.227Z,20.30
2022-08-05T13:38:38.490Z,20.30
2022-08-05T13:41:12.966Z,20.40
2022-08-05T13:43:45.266Z,20.40
2022-08-05T13:47:01.517Z,20.60
2022-08-05T13:49:10.351Z,20.70
2022-08-05T13:51:41.130Z,19.90
2022-08-05T13:54:12.912Z,20.90
2022-08-05T13:56:51.022Z,20.90
2022-08-05T13:59:24.060Z,20.90
2022-08-05T14:02:00.160Z,20.90
2022-08-05T14:04:51.577Z,20.80
2022-08-05T14:08:01.223Z,20.90
2022-08-05T14:10:12.919Z,21.00
2022-08-05T14:24:38.294Z,21.00
2022-08-05T14:27:18.146Z,21.10
2022-08-05T14:37:44.740Z,21.40
2022-08-05T14:45:10.657Z,21.40
2022-08-05T14:48:03.416Z,21.60
2022-08-05T14:58:10.925Z,21.60
2022-08-05T15:00:57.914Z,21.50
2022-08-05T15:03:25.789Z,21.40
2022-08-05T15:06:07.005Z,21.50
2022-08-05T15:11:53.217Z,21.80
2022-08-05T15:14:33.380Z,21.80
2022-08-05T15:21:54.575Z,22.20
2022-08-05T15:24:26.962Z,22.30
2022-08-05T15:29:22.686Z,22.40
2022-08-05T15:41:03.540Z,22.30
2022-08-05T15:42:49.801Z,22.30
2022-08-05T15:45:09.746Z,22.30
2022-08-05T15:47:37.132Z,22.40
2022-08-05T15:50:07.338Z,22.30
2022-08-05T15:52:54.710Z,22.20
2022-08-05T15:55:24.660Z,22.30
2022-08-05T15:57:52.052Z,22.30
2022-08-05T16:00:26.502Z,22.20
2022-08-05T16:10:27.837Z,22.30
2022-08-05T16:12:56.130Z,22.40
2022-08-05T16:17:57.883Z,22.30
2022-08-05T16:22:51.966Z,22.30
2022-08-05T16:27:59.654Z,22.10
2022-08-05T16:30:30.657Z,22.10
2022-08-05T16:35:28.657Z,22.10
2022-08-05T16:43:28.127Z,22.20
2022-08-05T16:46:04.178Z,22.20
2022-08-05T16:48:37.582Z,22.30
2022-08-05T16:54:05.990Z,22.20
2022-08-05T17:03:47.402Z,22.00
2022-08-05T17:06:16.524Z,21.90
2022-08-05T17:08:52.928Z,21.90
2022-08-05T17:13:54.785Z,21.90
2022-08-05T17:16:36.640Z,20.50
2022-08-05T17:24:28.316Z,21.90
2022-08-05T17:37:02.226Z,21.90
2022-08-05T17:39:34.434Z,21.80
2022-08-05T17:44:50.974Z,21.70
2022-08-05T17:47:21.920Z,21.70
2022-08-05T17:57:50.284Z,21.40
2022-08-05T18:07:44.533Z,21.30
2022-08-05T18:10:20.615Z,21.30
2022-08-05T18:12:48.909Z,21.30
2022-08-05T18:20:31.948Z,21.10
2022-08-05T18:23:04.844Z,20.90
2022-08-05T18:30:33.843Z,20.80
2022-08-05T18:33:01.549Z,20.80
2022-08-05T18:36:01.104Z,20.70
2022-08-05T18:43:42.625Z,20.60
2022-08-05T18:46:10.205Z,20.60
2022-08-05T18:48:41.701Z,20.50
2022-08-05T18:52:04.971Z,20.50
2022-08-05T19:02:11.317Z,20.20
2022-08-05T19:05:02.949Z,20.20
2022-08-05T19:07:45.209Z,20.10
2022-08-05T19:18:10.236Z,19.90
2022-08-05T19:24:03.795Z,19.80
2022-08-05T19:28:30.079Z,19.50
2022-08-05T19:38:33.909Z,19.30
2022-08-05T19:46:30.048Z,19.10
2022-08-05T19:49:01.050Z,19.10
2022-08-05T20:02:14.018Z,18.80
2022-08-05T20:07:13.309Z,18.70
2022-08-05T20:09:54.339Z,18.60
2022-08-05T20:12:24.099Z,18.50
2022-08-05T20:14:52.448Z,18.50
2022-08-05T20:24:55.083Z,18.20
2022-08-05T20:32:26.582Z,18.00
2022-08-05T20:40:09.099Z,17.80
2022-08-05T20:45:03.897Z,17.60
2022-08-05T20:52:29.519Z,17.40
2022-08-05T20:57:44.798Z,17.20
2022-08-05T21:00:35.112Z,17.10
2022-08-05T21:03:08.161Z,17.00
2022-08-05T21:05:48.214Z,16.90
2022-08-05T21:08:21.246Z,16.90
2022-08-05T21:10:54.714Z,16.80
2022-08-05T21:16:12.181Z,16.70
2022-08-05T21:26:12.428Z,16.40
2022-08-05T21:33:47.575Z,16.40
2022-08-05T21:46:32.542Z,16.10
2022-08-05T21:52:23.054Z,16.00
2022-08-05T21:54:14.964Z,16.00
2022-08-05T22:04:21.528Z,15.80
2022-08-05T22:06:52.523Z,15.80
2022-08-05T22:11:48.342Z,15.70
2022-08-05T22:14:35.603Z,15.70
2022-08-05T22:17:05.079Z,15.60
2022-08-05T22:22:26.767Z,15.60
2022-08-05T22:25:21.101Z,15.50
2022-08-05T22:30:55.315Z,15.40
2022-08-05T22:38:42.652Z,15.20
2022-08-05T22:41:10.192Z,15.20
2022-08-05T22:46:13.215Z,15.10
2022-08-05T22:48:41.709Z,15.00
2022-08-05T22:51:16.099Z,15.00
2022-08-05T22:56:29.712Z,14.90
2022-08-05T22:58:58.153Z,14.90
2022-08-05T23:01:50.730Z,14.80
2022-08-05T23:06:41.218Z,14.70
2022-08-05T23:09:27.772Z,14.70
2022-08-05T23:19:56.483Z,14.40
2022-08-05T23:22:27.531Z,14.30
2022-08-05T23:24:54.918Z,14.30
2022-08-05T23:27:22.693Z,14.20
2022-08-05T23:34:49.905Z,14.20
2022-08-05T23:37:17.744Z,14.10
2022-08-05T23:42:28.999Z,14.00
2022-08-05T23:55:07.014Z,13.80
2022-08-05T23:57:35.588Z,13.70
